Time;durP1;ratioP1;P1;durP2;ratioP2;P2;SDS_P1;SDS_P2;PMS_P1;PMS_P2;Temp;Humidity;BMP_temperature;BMP_pressure;BME280_temperature;BME280_humidity;BME280_pressure;Samples;Min_cycle;Max_cycle;Signal;HPM_P1;HPM_P2
2022/03/30 00:01:55;;;;;;;6.28;3.33;;;11.00;99.90;;;;;;5091891;28;20103;-83
2022/03/30 00:04:21;;;;;;;5.10;3.28;;;11.00;99.90;;;;;;5092083;28;20549;-83
2022/03/30 00:06:47;;;;;;;6.07;3.97;;;11.10;99.90;;;;;;5091107;28;20035;-82
2022/03/30 00:09:12;;;;;;;4.35;3.30;;;11.10;99.90;;;;;;5090777;28;20401;-82
2022/03/30 00:11:38;;;;;;;6.60;3.92;;;11.00;99.90;;;;;;5092247;28;20028;-82
2022/03/30 00:14:04;;;;;;;5.85;3.47;;;11.10;99.90;;;;;;5083574;28;20031;-82
2022/03/30 00:16:30;;;;;;;7.57;3.72;;;11.00;99.90;;;;;;5089426;28;20108;-82
2022/03/30 00:18:56;;;;;;;8.70;3.72;;;11.10;99.90;;;;;;5081840;28;20444;-82
2022/03/30 00:21:21;;;;;;;5.30;3.47;;;11.10;99.90;;;;;;5091845;28;20030;-82
2022/03/30 00:23:47;;;;;;;5.90;3.58;;;11.20;99.90;;;;;;5075679;28;20032;-82
2022/03/30 00:26:13;;;;;;;6.00;3.10;;;11.30;99.90;;;;;;5092823;28;20039;-83
2022/03/30 00:28:39;;;;;;;8.75;3.80;;;11.30;99.90;;;;;;5082999;28;20500;-83
2022/03/30 00:31:04;;;;;;;6.65;3.55;;;11.30;99.90;;;;;;5082773;28;20454;-83
2022/03/30 00:33:30;;;;;;;9.32;3.33;;;11.40;99.90;;;;;;5086689;28;20456;-83
2022/03/30 00:35:56;;;;;;;8.38;3.53;;;11.20;99.90;;;;;;5088741;28;20090;-83
2022/03/30 00:38:22;;;;;;;5.95;2.92;;;11.30;99.90;;;;;;5092771;28;20028;-83
2022/03/30 00:40:48;;;;;;;4.78;3.33;;;11.20;99.90;;;;;;5090727;28;20036;-83
2022/03/30 00:43:15;;;;;;;5.50;3.28;;;11.30;99.90;;;;;;5078595;28;20091;-83
2022/03/30 00:45:41;;;;;;;7.25;3.33;;;11.40;99.90;;;;;;5079480;28;20294;-83
2022/03/30 00:48:07;;;;;;;11.13;4.00;;;11.30;99.90;;;;;;5091034;28;20174;-83
2022/03/30 00:50:33;;;;;;;5.13;2.88;;;11.40;99.90;;;;;;5076053;28;20024;-83
2022/03/30 00:52:59;;;;;;;5.47;2.65;;;11.40;99.90;;;;;;5090378;28;20032;-83
2022/03/30 00:55:25;;;;;;;5.88;3.03;;;11.40;99.90;;;;;;5090523;28;20522;-83
2022/03/30 00:57:53;;;;;;;6.47;2.95;;;11.30;99.90;;;;;;5089497;28;20024;-83
2022/03/30 01:00:19;;;;;;;5.63;3.78;;;11.20;99.90;;;;;;5088669;28;20103;-83
2022/03/30 01:02:47;;;;;;;5.28;3.47;;;11.10;99.90;;;;;;5072561;28;20575;-83
2022/03/30 01:05:14;;;;;;;6.50;3.63;;;11.10;99.90;;;;;;5092148;28;20024;-83
2022/03/30 01:07:41;;;;;;;5.40;2.70;;;11.20;99.90;;;;;;5081359;28;20055;-83
2022/03/30 01:10:09;;;;;;;4.47;2.85;;;11.30;99.90;;;;;;5090490;28;20138;-83
2022/03/30 01:12:38;;;;;;;4.47;3.33;;;11.30;99.90;;;;;;5087832;28;20016;-83
2022/03/30 01:15:08;;;;;;;6.72;2.72;;;11.20;99.90;;;;;;5088593;28;20016;-83
2022/03/30 01:17:34;;;;;;;6.53;2.90;;;11.20;99.90;;;;;;5070848;28;20029;-83
2022/03/30 01:20:00;;;;;;;5.88;3.70;;;11.30;99.90;;;;;;5087984;28;20035;-83
2022/03/30 01:22:26;;;;;;;7.25;3.40;;;11.20;99.90;;;;;;5083802;28;20114;-83
2022/03/30 01:24:52;;;;;;;4.13;2.58;;;11.30;99.90;;;;;;5080120;28;20027;-83
2022/03/30 01:27:18;;;;;;;3.45;2.40;;;11.30;99.90;;;;;;5090470;28;20024;-83
2022/03/30 01:32:31;;;;;;;4.03;2.63;;;11.30;99.90;;;;;;5092118;28;20039;-82
2022/03/30 01:34:59;;;;;;;6.80;3.33;;;11.30;99.90;;;;;;5088912;28;20056;-83
2022/03/30 01:37:28;;;;;;;4.00;2.60;;;11.40;99.90;;;;;;5088641;28;20055;-83
2022/03/30 01:39:57;;;;;;;5.22;2.90;;;11.40;99.90;;;;;;5088596;28;20553;-82
2022/03/30 01:42:24;;;;;;;5.85;2.83;;;11.40;99.90;;;;;;5085613;28;20028;-82
2022/03/30 01:44:50;;;;;;;7.82;3.80;;;11.30;99.90;;;;;;5086730;28;20020;-82
2022/03/30 01:47:17;;;;;;;4.80;2.88;;;11.30;99.90;;;;;;5090385;28;20031;-83
2022/03/30 01:49:44;;;;;;;6.25;2.90;;;11.30;99.90;;;;;;5089827;28;20039;-83
2022/03/30 01:52:10;;;;;;;5.68;3.00;;;11.40;99.90;;;;;;5084262;28;20092;-83
2022/03/30 01:54:38;;;;;;;3.85;2.85;;;11.30;99.90;;;;;;5085842;28;20577;-83
2022/03/30 01:57:06;;;;;;;8.07;3.50;;;11.40;99.90;;;;;;5073578;28;20034;-83
2022/03/30 01:59:32;;;;;;;4.57;2.80;;;11.40;99.90;;;;;;5091504;28;20078;-82
2022/03/30 02:01:58;;;;;;;5.72;3.17;;;11.50;99.90;;;;;;5087984;28;20036;-83
2022/03/30 02:04:24;;;;;;;4.35;3.53;;;11.50;99.90;;;;;;5082333;28;20032;-83
2022/03/30 02:06:50;;;;;;;6.88;3.15;;;11.40;99.90;;;;;;5077445;28;20486;-83
2022/03/30 02:09:18;;;;;;;6.38;3.60;;;11.30;99.90;;;;;;5087467;28;20028;-82
2022/03/30 02:11:43;;;;;;;4.25;3.60;;;11.30;99.90;;;;;;5089703;28;20473;-82
2022/03/30 02:14:09;;;;;;;4.22;2.75;;;11.40;99.90;;;;;;5089470;28;20103;-82
2022/03/30 02:16:36;;;;;;;2.88;2.47;;;11.40;99.90;;;;;;5088404;28;20034;-82
2022/03/30 02:19:02;;;;;;;5.85;3.70;;;11.30;99.90;;;;;;5080783;28;20434;-83
2022/03/30 02:21:28;;;;;;;4.72;3.33;;;11.30;99.90;;;;;;5089538;28;20035;-83
2022/03/30 02:23:53;;;;;;;5.18;2.83;;;11.30;99.90;;;;;;5073534;28;20032;-82
2022/03/30 02:26:19;;;;;;;6.25;3.38;;;11.30;99.90;;;;;;5091124;28;20566;-82
2022/03/30 02:28:52;;;;;;;5.65;3.25;;;11.30;99.90;;;;;;5088964;28;20035;-83
2022/03/30 02:31:19;;;;;;;6.68;3.70;;;11.30;99.90;;;;;;5078962;28;20054;-83
2022/03/30 02:33:45;;;;;;;9.18;3.85;;;11.20;99.90;;;;;;5073559;28;20074;-83
2022/03/30 02:36:11;;;;;;;7.32;3.30;;;11.30;99.90;;;;;;5089341;28;20024;-83
2022/03/30 02:38:37;;;;;;;6.63;2.88;;;11.30;99.90;;;;;;5092993;28;20093;-83
2022/03/30 02:41:05;;;;;;;4.03;3.22;;;11.30;99.90;;;;;;5082934;28;20494;-83
2022/03/30 02:43:30;;;;;;;6.90;3.10;;;11.30;99.90;;;;;;5086920;28;20016;-82
2022/03/30 02:45:58;;;;;;;4.70;3.78;;;11.40;99.90;;;;;;5093348;28;20024;-82
2022/03/30 02:48:28;;;;;;;4.30;3.40;;;11.20;99.90;;;;;;5086927;28;20474;-82
2022/03/30 02:50:58;;;;;;;4.25;2.70;;;11.10;99.90;;;;;;5090944;28;20025;-82
2022/03/30 02:53:25;;;;;;;5.35;3.13;;;11.20;99.90;;;;;;5094958;28;20106;-82
2022/03/30 02:55:51;;;;;;;5.60;3.03;;;11.30;99.90;;;;;;5081579;28;20049;-82
2022/03/30 02:58:19;;;;;;;5.28;3.60;;;11.30;99.90;;;;;;5078720;28;20101;-83
2022/03/30 03:00:45;;;;;;;5.53;3.42;;;11.20;99.90;;;;;;5092723;28;20054;-83
2022/03/30 03:03:11;;;;;;;5.22;3.03;;;11.30;99.90;;;;;;5093257;28;20031;-83
2022/03/30 03:05:38;;;;;;;5.30;3.35;;;11.30;99.90;;;;;;5092401;28;20032;-83
2022/03/30 03:08:06;;;;;;;5.10;3.58;;;11.30;99.90;;;;;;5093842;28;20490;-83
2022/03/30 03:10:33;;;;;;;8.05;3.65;;;11.20;99.90;;;;;;5082532;28;20107;-83
2022/03/30 03:12:59;;;;;;;4.03;3.45;;;11.10;99.90;;;;;;5080868;28;20115;-83
2022/03/30 03:15:24;;;;;;;5.63;3.53;;;11.10;99.90;;;;;;5092493;28;20553;-83
2022/03/30 03:17:51;;;;;;;4.63;3.60;;;11.20;99.90;;;;;;5091718;28;20024;-83
2022/03/30 03:20:17;;;;;;;5.65;2.88;;;11.30;99.90;;;;;;5094278;28;20043;-82
2022/03/30 03:22:43;;;;;;;7.50;3.53;;;11.30;99.90;;;;;;5075390;28;20025;-82
2022/03/30 03:25:10;;;;;;;6.47;3.20;;;11.20;99.90;;;;;;5075507;28;20500;-82
2022/03/30 03:27:37;;;;;;;3.83;3.08;;;11.20;99.90;;;;;;5091919;28;20012;-82
2022/03/30 03:30:04;;;;;;;6.88;4.03;;;11.20;99.90;;;;;;5074150;28;20093;-82
2022/03/30 03:32:29;;;;;;;5.65;3.72;;;11.10;99.90;;;;;;5094536;28;20016;-82
2022/03/30 03:34:55;;;;;;;4.70;3.30;;;11.20;99.90;;;;;;5086602;28;20485;-82
2022/03/30 03:37:21;;;;;;;6.07;3.70;;;11.10;99.90;;;;;;5083358;28;20038;-81
2022/03/30 03:39:47;;;;;;;4.18;3.42;;;11.20;99.90;;;;;;5091485;28;20026;-81
2022/03/30 03:42:13;;;;;;;5.30;3.22;;;11.20;99.90;;;;;;5092250;28;20035;-82
2022/03/30 03:44:39;;;;;;;4.85;2.83;;;11.20;99.90;;;;;;5092622;28;20028;-82
2022/03/30 03:47:07;;;;;;;4.05;3.00;;;11.30;99.90;;;;;;5093266;28;20028;-82
2022/03/30 03:49:33;;;;;;;7.63;4.45;;;11.20;99.90;;;;;;5082011;28;20618;-82
2022/03/30 03:51:59;;;;;;;10.65;3.58;;;11.10;99.90;;;;;;5089804;28;20555;-83
2022/03/30 03:54:25;;;;;;;7.55;3.75;;;11.00;99.90;;;;;;5090901;28;20094;-83
2022/03/30 03:56:51;;;;;;;5.35;3.38;;;11.00;99.90;;;;;;5092252;28;20020;-83
2022/03/30 03:59:16;;;;;;;4.65;3.42;;;11.10;99.90;;;;;;5093806;28;20020;-83
2022/03/30 04:01:43;;;;;;;6.80;3.58;;;11.10;99.90;;;;;;5089493;28;20052;-82
2022/03/30 04:04:09;;;;;;;7.78;4.10;;;11.10;99.90;;;;;;5086236;28;20027;-82
2022/03/30 04:06:35;;;;;;;8.82;3.65;;;11.10;99.90;;;;;;5083478;28;20025;-81
2022/03/30 04:09:01;;;;;;;5.00;3.13;;;11.10;99.90;;;;;;5091362;28;20541;-81
2022/03/30 04:11:26;;;;;;;5.35;3.58;;;11.00;99.90;;;;;;5093656;28;20512;-81
2022/03/30 04:13:52;;;;;;;7.72;3.45;;;11.00;99.90;;;;;;5090782;28;20043;-82
2022/03/30 04:16:18;;;;;;;5.03;3.20;;;11.10;99.90;;;;;;5089185;28;20119;-82
2022/03/30 04:18:44;;;;;;;6.70;3.67;;;11.10;99.90;;;;;;5091769;28;20508;-82
2022/03/30 04:21:10;;;;;;;7.10;3.75;;;11.10;99.90;;;;;;5089443;28;20512;-82
2022/03/30 04:23:36;;;;;;;11.32;3.80;;;10.90;99.90;;;;;;5075469;28;20043;-82
2022/03/30 04:26:02;;;;;;;7.70;3.88;;;10.90;99.90;;;;;;5090992;28;20559;-81
2022/03/30 04:28:28;;;;;;;6.22;3.53;;;10.80;99.90;;;;;;5091292;28;20573;-82
2022/03/30 04:30:54;;;;;;;5.43;3.50;;;10.80;99.90;;;;;;5089756;28;20032;-82
2022/03/30 04:33:20;;;;;;;5.00;2.75;;;10.90;99.90;;;;;;5089322;28;20013;-82
2022/03/30 04:35:46;;;;;;;7.15;3.00;;;10.90;99.90;;;;;;5071706;28;20120;-82
2022/03/30 04:38:11;;;;;;;6.20;3.15;;;10.80;99.90;;;;;;5092305;28;20039;-82
2022/03/30 04:40:37;;;;;;;4.03;2.88;;;10.80;99.90;;;;;;5090056;28;20044;-82
2022/03/30 04:43:03;;;;;;;5.82;3.17;;;10.70;99.90;;;;;;5082643;28;20497;-82
2022/03/30 04:45:29;;;;;;;4.80;3.22;;;10.80;99.90;;;;;;5090241;28;20123;-83
2022/03/30 04:47:55;;;;;;;5.10;2.83;;;10.80;99.90;;;;;;5089115;28;21015;-80
2022/03/30 04:50:22;;;;;;;7.53;3.88;;;10.90;99.90;;;;;;5072453;28;20509;-80
2022/03/30 04:52:48;;;;;;;5.53;3.20;;;10.80;99.90;;;;;;5080485;28;20106;-80
2022/03/30 04:55:15;;;;;;;5.25;3.10;;;10.90;99.90;;;;;;5089020;28;20049;-80
2022/03/30 04:57:41;;;;;;;4.97;2.72;;;10.90;99.90;;;;;;5089933;28;20039;-80
2022/03/30 05:00:09;;;;;;;3.90;3.08;;;11.00;99.90;;;;;;5085764;28;20119;-79
2022/03/30 05:02:36;;;;;;;6.75;3.00;;;10.90;99.90;;;;;;5089213;28;20107;-80
2022/03/30 05:05:03;;;;;;;5.53;3.22;;;10.80;99.90;;;;;;5078661;28;20025;-80
2022/03/30 05:07:29;;;;;;;4.22;3.15;;;10.70;99.90;;;;;;5084523;28;20100;-82
2022/03/30 05:09:57;;;;;;;5.93;3.65;;;10.70;99.90;;;;;;5089762;28;20104;-83
2022/03/30 05:12:24;;;;;;;5.60;2.85;;;10.80;99.90;;;;;;5076452;28;20105;-82
2022/03/30 05:14:52;;;;;;;8.77;3.53;;;10.80;99.90;;;;;;5090151;28;20035;-82
2022/03/30 05:17:18;;;;;;;6.28;3.17;;;10.70;99.90;;;;;;5071848;28;20036;-82
2022/03/30 05:19:44;;;;;;;7.93;3.55;;;10.70;99.90;;;;;;5079870;28;20055;-82
2022/03/30 05:22:10;;;;;;;9.00;3.15;;;10.80;99.90;;;;;;5085839;28;20059;-82
2022/03/30 05:24:37;;;;;;;8.27;3.75;;;10.80;99.90;;;;;;5076531;28;20090;-82
2022/03/30 05:27:03;;;;;;;3.45;3.10;;;10.80;99.90;;;;;;5070207;28;20048;-83
2022/03/30 05:29:29;;;;;;;4.65;3.00;;;10.80;99.90;;;;;;5087556;28;20016;-83
2022/03/30 05:31:55;;;;;;;3.85;2.78;;;10.90;99.90;;;;;;5082111;28;20084;-83
2022/03/30 05:34:21;;;;;;;6.18;3.22;;;10.90;99.90;;;;;;5076651;28;20466;-83
2022/03/30 05:36:47;;;;;;;5.93;3.22;;;10.90;99.90;;;;;;5079241;28;20015;-83
2022/03/30 05:39:12;;;;;;;5.55;3.05;;;10.90;99.90;;;;;;5090158;28;20016;-83
2022/03/30 05:41:38;;;;;;;8.68;3.50;;;10.90;99.90;;;;;;5090565;28;20544;-83
2022/03/30 05:44:04;;;;;;;6.90;3.53;;;10.90;99.90;;;;;;5089140;28;20035;-83
2022/03/30 05:46:30;;;;;;;5.95;3.67;;;10.80;99.90;;;;;;5082313;28;20031;-83
2022/03/30 05:48:56;;;;;;;6.30;3.33;;;10.90;99.90;;;;;;5088430;28;20020;-83
2022/03/30 05:51:21;;;;;;;5.97;2.92;;;10.90;99.90;;;;;;5088830;28;20020;-83
2022/03/30 05:53:47;;;;;;;9.18;3.42;;;10.90;99.90;;;;;;5090128;28;20020;-83
2022/03/30 05:56:13;;;;;;;6.80;3.40;;;10.90;99.90;;;;;;5091285;28;20476;-83
2022/03/30 05:58:39;;;;;;;4.93;3.13;;;10.90;99.90;;;;;;5088534;28;20040;-83
2022/03/30 06:01:06;;;;;;;5.10;3.00;;;10.90;99.90;;;;;;5082004;28;20532;-83
2022/03/30 06:03:37;;;;;;;5.55;3.35;;;10.80;99.90;;;;;;5088985;28;20021;-83
2022/03/30 06:06:04;;;;;;;7.75;4.07;;;10.90;99.90;;;;;;5071515;28;20028;-83
2022/03/30 06:08:31;;;;;;;4.88;3.08;;;11.00;99.90;;;;;;5090869;28;20024;-83
2022/03/30 06:10:57;;;;;;;4.28;3.40;;;11.00;99.90;;;;;;5074536;28;20020;-83
2022/03/30 06:13:22;;;;;;;5.65;4.25;;;11.00;99.90;;;;;;5082489;28;20024;-83
2022/03/30 06:15:48;;;;;;;4.75;3.67;;;11.00;99.90;;;;;;5088662;28;20076;-83
2022/03/30 06:18:14;;;;;;;8.18;3.85;;;11.00;99.90;;;;;;5084340;28;20111;-83
2022/03/30 06:20:41;;;;;;;6.63;3.25;;;11.00;99.90;;;;;;5086671;28;20027;-83
2022/03/30 06:23:07;;;;;;;7.78;3.90;;;10.90;99.90;;;;;;5076456;28;20036;-83
2022/03/30 06:25:33;;;;;;;10.23;4.85;;;10.90;99.90;;;;;;5076925;28;20025;-83
2022/03/30 06:27:59;;;;;;;6.00;4.35;;;10.80;99.90;;;;;;5089189;28;20105;-83
2022/03/30 06:30:25;;;;;;;7.95;5.10;;;10.70;99.90;;;;;;5088851;28;20023;-83
2022/03/30 06:32:52;;;;;;;13.90;5.78;;;10.80;99.90;;;;;;5087324;28;20049;-83
2022/03/30 06:35:18;;;;;;;14.13;6.05;;;10.70;99.90;;;;;;5084841;28;20028;-83
2022/03/30 06:37:46;;;;;;;11.50;6.38;;;10.80;99.90;;;;;;5087199;28;20020;-83
2022/03/30 06:40:13;;;;;;;10.25;5.40;;;10.90;99.90;;;;;;5089360;28;20024;-83
2022/03/30 06:42:39;;;;;;;11.27;6.47;;;10.90;99.90;;;;;;5087153;28;20020;-83
2022/03/30 06:45:07;;;;;;;8.93;5.72;;;10.90;99.90;;;;;;5087483;28;20437;-83
2022/03/30 06:47:33;;;;;;;10.40;6.22;;;11.00;99.90;;;;;;5075515;28;20113;-83
2022/03/30 06:49:59;;;;;;;8.88;5.30;;;10.90;99.90;;;;;;5085716;28;20097;-83
2022/03/30 06:52:26;;;;;;;7.57;5.05;;;10.90;99.90;;;;;;5089485;28;20485;-83
2022/03/30 06:54:52;;;;;;;8.88;4.68;;;10.90;99.90;;;;;;5080304;28;20090;-83
2022/03/30 06:57:20;;;;;;;8.02;4.85;;;11.00;99.90;;;;;;5089464;28;20032;-83
2022/03/30 06:59:46;;;;;;;7.50;4.60;;;10.90;99.90;;;;;;5089289;28;20075;-83
2022/03/30 07:02:11;;;;;;;14.80;5.20;;;10.90;99.90;;;;;;5088299;28;20501;-83
2022/03/30 07:04:38;;;;;;;8.68;4.88;;;10.90;99.90;;;;;;5086985;28;20111;-83
2022/03/30 07:12:33;;;;;;;8.60;4.45;;;10.90;99.90;;;;;;5083204;28;20070;-84
2022/03/30 07:15:00;;;;;;;8.20;4.22;;;10.90;99.90;;;;;;5087821;28;20032;-84
2022/03/30 07:17:27;;;;;;;7.65;3.78;;;10.90;99.90;;;;;;5090844;28;20090;-84
2022/03/30 07:19:53;;;;;;;8.65;4.10;;;11.00;99.90;;;;;;5077706;28;20029;-84
2022/03/30 07:22:18;;;;;;;7.15;4.40;;;11.00;99.90;;;;;;5077564;28;20025;-84
2022/03/30 07:24:44;;;;;;;9.52;4.65;;;11.00;99.90;;;;;;5077112;28;20489;-84
2022/03/30 07:27:10;;;;;;;8.48;3.70;;;11.00;99.90;;;;;;5092085;28;20146;-84
2022/03/30 07:29:36;;;;;;;6.03;3.25;;;10.90;99.90;;;;;;5092524;28;20562;-84
2022/03/30 07:32:03;;;;;;;5.53;3.30;;;11.00;99.90;;;;;;5093219;28;20455;-83
2022/03/30 07:34:29;;;;;;;8.75;3.90;;;10.90;99.90;;;;;;5092996;28;20012;-83
2022/03/30 07:36:55;;;;;;;10.38;3.70;;;10.90;99.90;;;;;;5083570;28;20107;-83
2022/03/30 07:39:21;;;;;;;5.20;3.35;;;10.80;99.90;;;;;;5086945;28;20101;-83
2022/03/30 07:41:46;;;;;;;4.90;3.42;;;10.80;99.90;;;;;;5073877;28;20487;-83
2022/03/30 07:44:12;;;;;;;8.48;3.38;;;10.80;99.90;;;;;;5093534;28;20024;-83
2022/03/30 07:46:38;;;;;;;9.55;4.45;;;10.90;99.90;;;;;;5082911;28;20400;-83
2022/03/30 07:49:03;;;;;;;5.15;3.58;;;10.90;99.90;;;;;;5080168;28;20074;-83
2022/03/30 07:51:29;;;;;;;7.95;4.07;;;10.90;99.90;;;;;;5077699;28;20051;-83
2022/03/30 07:53:55;;;;;;;10.43;3.75;;;10.70;99.90;;;;;;5090324;28;20508;-83
2022/03/30 07:56:21;;;;;;;4.43;3.60;;;10.90;99.90;;;;;;5083261;28;20036;-83
2022/03/30 07:58:48;;;;;;;5.97;4.03;;;10.90;99.90;;;;;;5089416;28;20382;-83
2022/03/30 08:01:16;;;;;;;9.20;4.85;;;10.90;99.90;;;;;;5089645;28;20516;-83
2022/03/30 08:03:44;;;;;;;5.18;3.88;;;10.90;99.90;;;;;;5091763;28;20020;-83
2022/03/30 08:06:10;;;;;;;5.80;3.83;;;10.90;99.90;;;;;;5088105;28;20113;-83
2022/03/30 08:08:36;;;;;;;8.82;4.15;;;10.80;99.90;;;;;;5089737;28;20008;-83
2022/03/30 08:11:02;;;;;;;12.00;5.45;;;10.80;99.90;;;;;;5076869;28;20386;-84
2022/03/30 08:13:28;;;;;;;7.90;3.88;;;10.90;99.90;;;;;;5084979;28;20028;-84
2022/03/30 08:15:53;;;;;;;5.43;3.35;;;10.90;99.90;;;;;;5084233;28;20536;-83
2022/03/30 08:18:19;;;;;;;7.57;4.03;;;10.80;99.90;;;;;;5085478;28;20032;-83
2022/03/30 08:23:29;;;;;;;5.00;3.72;;;10.90;99.90;;;;;;5078340;28;20077;-82
2022/03/30 08:25:55;;;;;;;7.25;3.97;;;10.90;99.90;;;;;;5087045;28;20033;-83
2022/03/30 08:28:20;;;;;;;9.55;4.50;;;11.00;99.90;;;;;;5084413;28;20029;-83
2022/03/30 08:30:48;;;;;;;6.95;3.92;;;11.00;99.90;;;;;;5078376;28;20020;-83
2022/03/30 08:33:16;;;;;;;10.45;4.00;;;10.90;99.90;;;;;;5090668;28;20016;-84
2022/03/30 08:35:42;;;;;;;7.25;3.63;;;11.00;99.90;;;;;;5073378;28;20040;-84
2022/03/30 08:38:08;;;;;;;7.85;4.45;;;11.00;99.90;;;;;;5090726;28;20527;-84
2022/03/30 08:40:34;;;;;;;8.30;3.83;;;11.00;99.90;;;;;;5091021;28;20028;-84
2022/03/30 08:43:00;;;;;;;8.77;4.68;;;11.10;99.90;;;;;;5086944;28;20028;-84
2022/03/30 08:45:26;;;;;;;6.45;3.28;;;11.00;99.90;;;;;;5077035;28;20107;-84
2022/03/30 08:47:52;;;;;;;7.07;3.85;;;11.00;99.90;;;;;;5090931;28;20378;-84
2022/03/30 08:50:19;;;;;;;4.80;3.80;;;11.00;99.90;;;;;;5071327;28;20024;-84
2022/03/30 08:52:49;;;;;;;5.60;3.50;;;11.10;99.90;;;;;;5084037;28;20082;-83
2022/03/30 08:55:15;;;;;;;5.07;3.45;;;11.10;99.90;;;;;;5082439;28;20044;-83
2022/03/30 08:57:41;;;;;;;7.72;4.45;;;11.00;99.90;;;;;;5084692;28;20021;-84
2022/03/30 09:00:13;;;;;;;5.82;3.42;;;11.00;99.90;;;;;;5088428;28;20043;-83
2022/03/30 09:03:00;;;;;;;6.03;3.42;;;11.20;99.90;;;;;;5071677;28;20104;-84
2022/03/30 09:05:30;;;;;;;6.25;3.63;;;11.30;99.90;;;;;;5092375;28;20020;-84
2022/03/30 09:08:25;;;;;;;5.25;2.88;;;11.40;99.90;;;;;;5089437;28;20061;-83
2022/03/30 09:10:53;;;;;;;5.63;3.30;;;11.30;99.90;;;;;;5073477;28;20032;-84
2022/03/30 09:13:20;;;;;;;5.82;3.50;;;11.20;99.90;;;;;;5077791;28;20025;-84
2022/03/30 09:15:47;;;;;;;7.88;3.47;;;11.20;99.90;;;;;;5089315;28;20024;-83
2022/03/30 09:18:15;;;;;;;10.15;4.45;;;11.20;99.90;;;;;;5089452;28;20028;-84
2022/03/30 09:20:46;;;;;;;8.98;3.83;;;11.30;99.90;;;;;;5091210;28;20024;-84
2022/03/30 09:23:13;;;;;;;10.45;5.65;;;11.20;99.90;;;;;;5078777;28;20555;-84
2022/03/30 09:25:44;;;;;;;11.48;5.00;;;11.00;99.90;;;;;;5084740;28;20124;-83
2022/03/30 09:28:10;;;;;;;10.45;5.22;;;11.20;99.90;;;;;;5086522;28;20021;-84
2022/03/30 09:30:36;;;;;;;7.38;4.95;;;11.00;99.90;;;;;;5090228;28;20020;-84
2022/03/30 09:33:02;;;;;;;8.75;5.25;;;10.90;99.90;;;;;;5088822;28;20020;-83
2022/03/30 09:35:29;;;;;;;12.63;5.97;;;10.90;99.90;;;;;;5091010;28;20493;-84
2022/03/30 09:38:12;;;;;;;16.13;6.88;;;10.70;99.90;;;;;;5078031;28;20020;-84
2022/03/30 09:40:43;;;;;;;11.55;5.57;;;10.90;99.90;;;;;;5075196;28;20067;-83
2022/03/30 09:43:29;;;;;;;11.05;5.75;;;10.80;99.90;;;;;;5074751;28;20051;-84
2022/03/30 09:46:11;;;;;;;12.20;6.65;;;10.70;99.90;;;;;;5080380;28;20071;-86
2022/03/30 09:48:40;;;;;;;11.80;5.97;;;10.80;99.90;;;;;;5089008;28;20103;-86
2022/03/30 09:51:07;;;;;;;7.03;5.07;;;10.80;99.90;;;;;;5070506;28;20024;-83
2022/03/30 09:53:34;;;;;;;10.35;5.95;;;10.80;99.90;;;;;;5087207;28;20017;-83
2022/03/30 09:56:05;;;;;;;12.50;5.45;;;11.00;99.90;;;;;;5073082;28;20067;-82
2022/03/30 09:58:36;;;;;;;11.15;5.82;;;10.90;99.90;;;;;;5077132;28;20048;-82
2022/03/30 10:01:22;;;;;;;9.13;5.10;;;10.80;99.90;;;;;;5081132;28;20036;-82
2022/03/30 10:03:53;;;;;;;12.40;6.03;;;10.80;99.90;;;;;;5079046;28;20073;-82
2022/03/30 10:06:24;;;;;;;13.00;6.70;;;10.90;99.90;;;;;;5087324;28;20056;-82
2022/03/30 10:08:51;;;;;;;9.20;5.53;;;10.90;99.90;;;;;;5086887;28;20031;-81
2022/03/30 10:11:18;;;;;;;8.15;5.53;;;11.00;99.90;;;;;;5074462;28;20036;-81
2022/03/30 10:13:54;;;;;;;9.02;5.63;;;11.00;99.90;;;;;;5083615;28;20028;-81
2022/03/30 10:16:21;;;;;;;8.10;5.18;;;10.90;99.90;;;;;;5089467;28;20180;-81
2022/03/30 10:18:49;;;;;;;9.82;5.40;;;11.00;99.90;;;;;;5087385;28;20091;-81
2022/03/30 10:21:57;;;;;;;10.07;4.78;;;11.00;99.90;;;;;;5070971;28;20025;-81
2022/03/30 10:25:02;;;;;;;8.35;5.45;;;11.00;99.90;;;;;;5062248;28;20039;-81
2022/03/30 10:27:43;;;;;;;12.93;5.75;;;11.00;99.90;;;;;;5073526;28;20028;-82
2022/03/30 10:30:11;;;;;;;9.98;5.57;;;11.10;99.90;;;;;;5072888;28;20024;-81
2022/03/30 10:32:38;;;;;;;7.13;4.82;;;11.10;99.90;;;;;;5091309;28;20086;-82
2022/03/30 10:35:07;;;;;;;8.70;5.35;;;11.20;99.90;;;;;;5089522;28;20032;-81
2022/03/30 10:37:36;;;;;;;6.88;5.10;;;11.20;99.90;;;;;;5086771;28;20038;-81
2022/03/30 10:40:05;;;;;;;7.53;5.28;;;11.20;99.90;;;;;;5087823;28;20110;-81
2022/03/30 10:42:46;;;;;;;11.10;5.50;;;11.20;99.90;;;;;;5084220;28;20032;-81
2022/03/30 10:45:33;;;;;;;9.43;5.70;;;11.20;99.90;;;;;;5074328;28;20623;-80
2022/03/30 10:48:10;;;;;;;10.30;5.53;;;11.20;99.90;;;;;;5087476;28;20046;-81
2022/03/30 10:50:48;;;;;;;9.00;5.22;;;11.20;99.90;;;;;;5071074;28;20028;-81
2022/03/30 10:53:34;;;;;;;10.88;6.07;;;11.00;99.90;;;;;;5069287;28;20036;-81
2022/03/30 10:56:09;;;;;;;15.48;7.75;;;10.70;99.90;;;;;;5080262;28;20070;-81
2022/03/30 10:59:00;;;;;;;13.27;7.35;;;10.60;99.90;;;;;;5082820;28;20055;-81
2022/03/30 11:01:34;;;;;;;13.52;8.13;;;10.50;99.90;;;;;;5087631;28;20035;-81
2022/03/30 11:04:19;;;;;;;12.15;7.30;;;10.50;99.90;;;;;;5091388;28;20044;-82
2022/03/30 11:07:12;;;;;;;11.27;7.10;;;10.70;99.90;;;;;;5091528;28;20059;-81
2022/03/30 11:09:40;;;;;;;13.90;7.82;;;10.70;99.90;;;;;;5087705;28;20075;-81
2022/03/30 11:12:13;;;;;;;12.80;8.18;;;10.60;99.90;;;;;;5073208;28;20436;-81
2022/03/30 11:14:44;;;;;;;14.02;9.00;;;10.60;99.90;;;;;;5089851;28;20023;-81
2022/03/30 11:17:15;;;;;;;16.73;7.97;;;10.70;99.90;;;;;;5093470;28;20024;-81
2022/03/30 11:19:47;;;;;;;11.48;7.55;;;10.90;99.90;;;;;;5090627;28;20446;-81
2022/03/30 11:22:13;;;;;;;;;;;10.80;99.90;;;;;;5092510;28;20047;-81
2022/03/30 11:24:44;;;;;;;10.80;7.55;;;10.80;99.90;;;;;;5092708;28;19953;-81
2022/03/30 11:27:10;;;;;;;15.07;7.43;;;10.80;99.90;;;;;;5090264;28;20123;-81
2022/03/30 11:29:48;;;;;;;15.68;7.70;;;10.80;99.90;;;;;;5094513;28;20107;-81
2022/03/30 11:32:30;;;;;;;17.88;7.78;;;10.60;99.90;;;;;;5087036;28;20096;-81
2022/03/30 11:34:58;;;;;;;15.85;8.23;;;10.60;99.90;;;;;;5086827;28;20066;-81
2022/03/30 11:37:29;;;;;;;14.65;7.18;;;10.70;99.90;;;;;;5083221;28;20032;-81
2022/03/30 11:40:10;;;;;;;12.13;7.50;;;10.60;99.90;;;;;;5072554;28;20106;-81
2022/03/30 11:42:37;;;;;;;13.15;7.35;;;10.80;99.90;;;;;;5075469;28;20569;-80
2022/03/30 11:45:19;;;;;;;12.85;7.28;;;10.80;99.90;;;;;;5089017;28;20060;-80
2022/03/30 11:47:54;;;;;;;11.80;7.07;;;10.70;99.90;;;;;;5092613;28;20020;-80
2022/03/30 11:50:32;;;;;;;15.75;8.05;;;10.80;99.90;;;;;;5073450;28;20032;-81
2022/03/30 11:53:00;;;;;;;11.98;7.38;;;11.00;99.90;;;;;;5082902;28;20059;-81
2022/03/30 11:55:28;;;;;;;16.20;8.70;;;11.00;99.90;;;;;;5089789;28;20040;-81
2022/03/30 11:57:56;;;;;;;15.85;7.70;;;10.90;99.90;;;;;;5083279;28;20077;-81
2022/03/30 12:00:24;;;;;;;14.18;7.93;;;11.00;99.90;;;;;;5091956;28;20098;-80
2022/03/30 12:02:50;;;;;;;12.45;8.88;;;11.00;99.90;;;;;;5091823;28;20012;-81
2022/03/30 12:05:16;;;;;;;13.70;8.82;;;10.90;99.90;;;;;;5091318;28;20489;-81
2022/03/30 12:07:42;;;;;;;15.98;9.25;;;10.80;99.90;;;;;;5083767;28;20031;-81
2022/03/30 12:10:13;;;;;;;15.75;8.32;;;10.80;99.90;;;;;;5088613;28;20088;-81
2022/03/30 12:12:41;;;;;;;15.43;9.07;;;10.80;99.90;;;;;;5083437;28;20134;-81
2022/03/30 12:15:14;;;;;;;17.58;8.80;;;10.80;99.90;;;;;;5074653;28;20070;-81
2022/03/30 12:17:40;;;;;;;14.27;8.50;;;10.80;99.90;;;;;;5091581;28;20500;-81
2022/03/30 12:20:08;;;;;;;15.82;9.32;;;10.90;99.90;;;;;;5079301;28;20031;-81
2022/03/30 12:22:34;;;;;;;13.27;8.25;;;11.00;99.90;;;;;;5072576;28;20025;-81
2022/03/30 12:25:00;;;;;;;14.15;8.07;;;11.10;99.90;;;;;;5079120;28;20033;-81
2022/03/30 12:27:26;;;;;;;19.55;9.20;;;11.10;99.90;;;;;;5076788;28;20055;-81
2022/03/30 12:29:56;;;;;;;13.95;8.30;;;11.10;99.90;;;;;;5089664;28;20493;-81
2022/03/30 12:32:23;;;;;;;18.52;9.25;;;11.10;99.90;;;;;;5072877;28;20154;-81
2022/03/30 12:34:49;;;;;;;13.85;8.77;;;11.10;99.90;;;;;;5081391;28;20024;-81
2022/03/30 12:37:22;;;;;;;15.23;9.18;;;11.20;99.90;;;;;;5077946;28;20032;-81
2022/03/30 12:39:48;;;;;;;16.92;9.27;;;11.10;99.90;;;;;;5074650;28;20107;-81
2022/03/30 12:42:22;;;;;;;23.58;9.45;;;11.10;99.90;;;;;;5086435;28;20103;-81
2022/03/30 12:44:58;;;;;;;19.60;9.55;;;11.00;99.90;;;;;;5087667;28;20024;-81
2022/03/30 12:47:35;;;;;;;17.83;9.82;;;11.10;99.90;;;;;;5072664;28;20029;-81
2022/03/30 12:50:11;;;;;;;15.02;9.40;;;11.10;99.90;;;;;;5088697;28;20053;-82
2022/03/30 12:52:43;;;;;;;16.88;8.88;;;11.30;99.90;;;;;;5077353;28;20529;-82
2022/03/30 12:55:36;;;;;;;13.32;8.90;;;11.30;99.90;;;;;;5083230;28;20036;-81
2022/03/30 12:58:07;;;;;;;21.48;9.13;;;11.30;99.90;;;;;;5088046;28;20119;-82
2022/03/30 13:00:45;;;;;;;13.70;8.20;;;11.40;99.90;;;;;;5090295;28;20035;-82
2022/03/30 13:03:11;;;;;;;15.90;8.18;;;11.50;99.90;;;;;;5075532;28;20028;-82